Danville Regional Airport
KDAN : now visible

Airfield :











YOU CAN JOIN US ON...

 
LOGIN :

Register | Disclaimer

   EN    FR    IT 

 









Legend :    VFR   Marginal VFR   IFR   Intensive IFR   Very Intensive IFR
Visi :
Ceiling :
>= 8 km
>= 3000ft
5 to 8 km
1000 to 3000 ft
1500m to 5 km
500 to 1000 ft
800 to 1500m
200 to 500 ft
< 800m
< 200 ft
Symbols :   Thunderstorms  Fog  Heavy snow  Heavy precipitations  Wind > 20 kt






- Airport Elevation : 571 ft
- IATA code : DAN


KDAN - Danville Regional

CURRENT METAR :
  • 021653Z AUTO 24005KT 10SM CLR 31/21 A3003 RMK AO2 SLP156 T03060206

EXPIRED METARs :
  • 021553Z AUTO VRB04KT 10SM CLR 29/21 A3004 RMK AO2 SLP159 T02890206
  • 021500Z AUTO 23005KT 10SM SCT017 28/21 A3004 RMK AO2 T02780206
  • 021453Z AUTO VRB04KT 10SM BKN017 28/21 A3004 RMK AO2 SLP159 T02780206 58004
  • 021435Z AUTO 25005KT 10SM BKN016 27/21 A3004 RMK AO2 T02670206
  • 020253Z AUTO 22004KT 10SM CLR 23/19 A3009 RMK AO2 SLP176 T02330194 50008

TAF KDAN
Valid from the 02 at 16:00 until the 03 at 12:00 UTC


021558Z 0216/0312 25005KT P6SM SCT018
FM021700 20006KT P6SM SCT045 SCT250
FM022000 21007KT P6SM SCT050 SCT080
FM022200 20006KT P6SM VCTS BKN050CB BKN080
FM030400 VRB03KT P6SM BKN080 OVC150
FM030800 00000KT 3SM BR OVC009
KZDC FIR / North America



MET'MAP, your aeronautical weather chart ! - Copyright ORBIFLY December 2007 - Disclaimer

ORBIFLY MET'MAP TEAM :

Programming & Development : Alexandra Zaïnal
Original concept : Baudouin d'Aumeries
Technical & hardware support : Manuel Goepfert
Assistance : Marc-Olivier Méhu




SOURCES & CREDITS :

   NOAA       Earth
Advisory